ADDS METAR Data INFO
IDs: Format: Raw Decoded Include TAF

Data at: 1149 UTC 25 Jun 2018

METAR for:KIAH (Houston/Bush Intl, TX, US)
Text:KIAH 251053Z 17008KT 10SM FEW021 SCT250 27/25 A2995 RMK AO2 SLP142 T02720250
Temperature: 27.2°C ( 81°F)
Dewpoint: 25.0°C ( 77°F) [RH = 88%]
Pressure (altimeter):29.95 inches Hg (1014.3 mb) [Sea level pressure: 1014.2 mb]
Winds:from the S (170 degrees) at 9 MPH (8 knots; 4.1 m/s)
Visibility:10 or more sm (16+ km)
Ceiling:at least 12,000 feet AGL
Clouds: few clouds at 2100 feet AGL, scattered clouds at 25000 feet AGL

METAR for:KHOU (Houston/Hobby Arpt, TX, US)
Text:KHOU 251053Z 00000KT 10SM FEW022 SCT250 27/25 A2996 RMK AO2 SLP149 T02670250
Temperature: 26.7°C ( 80°F)
Dewpoint: 25.0°C ( 77°F) [RH = 90%]
Pressure (altimeter):29.96 inches Hg (1014.6 mb) [Sea level pressure: 1014.9 mb]
Winds:calm
Visibility:10 or more sm (16+ km)
Ceiling:at least 12,000 feet AGL
Clouds: few clouds at 2200 feet AGL, scattered clouds at 25000 feet AGL

METAR for:KGLS (Galveston/Scholes In, TX, US)
Text:KGLS 251131Z 17015KT 10SM BKN022 28/26 A2998 RMK AO2 T02780256
Temperature: 27.8°C ( 82°F)
Dewpoint: 25.6°C ( 78°F) [RH = 88%]
Pressure (altimeter):29.98 inches Hg (1015.3 mb)
Winds:from the S (170 degrees) at 17 MPH (15 knots; 7.7 m/s)
Visibility:10 or more sm (16+ km)
Ceiling:2200 feet AGL
Clouds: broken clouds at 2200 feet AGL

METAR for:KLVJ (Houston/Pearland Rgn, TX, US)
Text:KLVJ 251146Z AUTO 17005KT 8SM FEW016 BKN027 OVC031 27/25 A2999 RMK AO2 T02720250
Temperature: 27.2°C ( 81°F)
Dewpoint: 25.0°C ( 77°F) [RH = 88%]
Pressure (altimeter):29.99 inches Hg (1015.7 mb)
Winds:from the S (170 degrees) at 6 MPH (5 knots; 2.6 m/s)
Visibility: 8 sm ( 13 km)
Ceiling:2700 feet AGL
Clouds: few clouds at 1600 feet AGL, broken clouds at 2700 feet AGL, overcast cloud deck at 3100 feet AGL
QC Flag:automated observation with no human augmentation

METAR for:KSGR (Houston/Sugar Land R, TX, US)
Text:KSGR 251053Z AUTO 14005KT 10SM FEW023 BKN034 OVC041 27/24 A2996 RMK AO2 SLP145 T02720239 $
Temperature: 27.2°C ( 81°F)
Dewpoint: 23.9°C ( 75°F) [RH = 82%]
Pressure (altimeter):29.96 inches Hg (1014.6 mb) [Sea level pressure: 1014.5 mb]
Winds:from the SE (140 degrees) at 6 MPH (5 knots; 2.6 m/s)
Visibility:10 or more sm (16+ km)
Ceiling:3400 feet AGL
Clouds: few clouds at 2300 feet AGL, broken clouds at 3400 feet AGL, overcast cloud deck at 4100 feet AGL
QC Flag:automated observation with no human augmentation; SOME DATA ABOVE MAY BE INACCURATE!!!"$" is an indication the sensor requires maintenance.

METAR for:KDWH (Houston/Hooks Mem, TX, US)
Text:KDWH 251053Z AUTO 18005KT 10SM FEW018 FEW025 27/24 A2995 RMK AO2 SLP141 T02670239
Temperature: 26.7°C ( 80°F)
Dewpoint: 23.9°C ( 75°F) [RH = 85%]
Pressure (altimeter):29.95 inches Hg (1014.3 mb) [Sea level pressure: 1014.1 mb]
Winds:from the S (180 degrees) at 6 MPH (5 knots; 2.6 m/s)
Visibility:10 or more sm (16+ km)
Ceiling:at least 12,000 feet AGL
Clouds: few clouds at 1800 feet AGL, few clouds at 2500 feet AGL
QC Flag:automated observation with no human augmentation

METAR for:KCLL (College Station/East, TX, US)
Text:KCLL 251053Z AUTO 17009KT 10SM SCT013 OVC028 25/24 A2995 RMK AO2 SLP135 T02500244
Temperature: 25.0°C ( 77°F)
Dewpoint: 24.4°C ( 76°F) [RH = 96%]
Pressure (altimeter):29.95 inches Hg (1014.3 mb) [Sea level pressure: 1013.5 mb]
Winds:from the S (170 degrees) at 10 MPH (9 knots; 4.6 m/s)
Visibility:10 or more sm (16+ km)
Ceiling:2800 feet AGL
Clouds: scattered clouds at 1300 feet AGL, overcast cloud deck at 2800 feet AGL
QC Flag:automated observation with no human augmentation

METAR for:KUTS (Huntsville Muni, TX, US)
Text:KUTS 251108Z AUTO 19007KT 10SM BKN018 26/23 A2997 RMK AO2 T02560233
Temperature: 25.6°C ( 78°F)
Dewpoint: 23.3°C ( 74°F) [RH = 87%]
Pressure (altimeter):29.97 inches Hg (1015.0 mb)
Winds:from the S (190 degrees) at 8 MPH (7 knots; 3.6 m/s)
Visibility:10 or more sm (16+ km)
Ceiling:1800 feet AGL
Clouds: broken clouds at 1800 feet AGL
QC Flag:automated observation with no human augmentation

METAR for:KCXO (Conroe/Executive Arp, TX, US)
Text:KCXO 251053Z 17008KT 10SM CLR 26/25 A2995 RMK AO2 SLP138 T02560250
Temperature: 25.6°C ( 78°F)
Dewpoint: 25.0°C ( 77°F) [RH = 96%]
Pressure (altimeter):29.95 inches Hg (1014.3 mb) [Sea level pressure: 1013.8 mb]
Winds:from the S (170 degrees) at 9 MPH (8 knots; 4.1 m/s)
Visibility:10 or more sm (16+ km)
Ceiling:at least 12,000 feet AGL
Clouds:sky clear below 12,000 feet AGL

METAR for:KLBX (Angleton/Texas Gulf, TX, US)
Text:KLBX 251053Z AUTO 17010KT 10SM FEW022 BKN029 28/24 A2995 RMK AO2 SLP142 T02780239
Temperature: 27.8°C ( 82°F)
Dewpoint: 23.9°C ( 75°F) [RH = 79%]
Pressure (altimeter):29.95 inches Hg (1014.3 mb) [Sea level pressure: 1014.2 mb]
Winds:from the S (170 degrees) at 12 MPH (10 knots; 5.1 m/s)
Visibility:10 or more sm (16+ km)
Ceiling:2900 feet AGL
Clouds: few clouds at 2200 feet AGL, broken clouds at 2900 feet AGL
QC Flag:automated observation with no human augmentation

METAR for:KPSX (Palacios Muni, TX, US)
Text:KPSX 251053Z AUTO 15015G20KT 9SM SCT021 OVC028 28/26 A2993 RMK AO2 SLP133 T02780256 $
Temperature: 27.8°C ( 82°F)
Dewpoint: 25.6°C ( 78°F) [RH = 88%]
Pressure (altimeter):29.93 inches Hg (1013.6 mb) [Sea level pressure: 1013.3 mb]
Winds:from the SSE (150 degrees) at 17 MPH (15 knots; 7.7 m/s) gusting to 23 MPH (20 knots; 10.3 m/s)
Visibility: 9 sm ( 14 km)
Ceiling:2800 feet AGL
Clouds: scattered clouds at 2100 feet AGL, overcast cloud deck at 2800 feet AGL
QC Flag:automated observation with no human augmentation; SOME DATA ABOVE MAY BE INACCURATE!!!"$" is an indication the sensor requires maintenance.